Time;durP1;ratioP1;P1;durP2;ratioP2;P2;SDS_P1;SDS_P2;PMS_P1;PMS_P2;Temp;Humidity;BMP_temperature;BMP_pressure;BME280_temperature;BME280_humidity;BME280_pressure;Samples;Min_cycle;Max_cycle;Signal;HPM_P1;HPM_P2
2020/12/17 00:00:53;;;;;;;44.05;25.55;;;3.70;99.90;;;;;;5093315;28;20107;-80
2020/12/17 00:03:18;;;;;;;43.25;26.58;;;3.70;99.90;;;;;;5088436;28;20028;-74
2020/12/17 00:05:44;;;;;;;50.03;27.67;;;3.70;99.90;;;;;;5091670;28;20030;-76
2020/12/17 00:08:10;;;;;;;49.30;27.83;;;3.70;99.90;;;;;;5093378;28;20081;-79
2020/12/17 00:10:36;;;;;;;44.33;26.92;;;3.70;99.90;;;;;;5093504;28;20039;-76
2020/12/17 00:13:02;;;;;;;40.55;26.13;;;3.70;99.90;;;;;;5093559;28;20028;-81
2020/12/17 00:15:28;;;;;;;37.85;24.15;;;3.70;99.90;;;;;;5085687;28;20028;-74
2020/12/17 00:17:53;;;;;;;41.38;24.13;;;3.70;99.90;;;;;;5093353;28;20028;-80
2020/12/17 00:20:23;;;;;;;45.35;26.45;;;3.60;99.90;;;;;;5089424;28;20054;-79
2020/12/17 00:22:49;;;;;;;39.97;24.87;;;3.70;99.90;;;;;;5093048;28;20028;-78
2020/12/17 00:25:18;;;;;;;42.03;25.05;;;3.60;99.90;;;;;;5094289;28;20024;-81
2020/12/17 00:27:45;;;;;;;40.22;24.35;;;3.60;99.90;;;;;;5075887;28;20089;-81
2020/12/17 00:30:13;;;;;;;39.70;24.05;;;3.60;99.90;;;;;;5092976;28;20027;-81
2020/12/17 00:32:40;;;;;;;36.75;23.23;;;3.60;99.90;;;;;;5093412;28;20077;-72
2020/12/17 00:35:07;;;;;;;38.80;24.02;;;3.60;99.90;;;;;;5092867;28;20670;-82
2020/12/17 00:37:33;;;;;;;40.80;25.05;;;3.50;99.90;;;;;;5093445;28;20055;-82
2020/12/17 00:40:00;;;;;;;33.33;21.75;;;3.50;99.90;;;;;;5092504;28;20080;-81
2020/12/17 00:42:25;;;;;;;39.00;23.27;;;3.50;99.90;;;;;;5093762;28;20038;-77
2020/12/17 00:44:51;;;;;;;40.42;24.40;;;3.50;99.90;;;;;;5092656;28;20508;-81
2020/12/17 00:47:17;;;;;;;40.50;24.60;;;3.50;99.90;;;;;;5075235;28;20036;-81
2020/12/17 00:49:43;;;;;;;42.38;25.42;;;3.50;99.90;;;;;;5091819;28;20032;-81
2020/12/17 00:52:09;;;;;;;41.28;25.13;;;3.50;99.90;;;;;;5092490;28;20516;-82
2020/12/17 00:54:39;;;;;;;37.58;24.15;;;3.40;99.90;;;;;;5093483;28;20377;-74
2020/12/17 00:57:05;;;;;;;39.72;25.33;;;3.40;99.90;;;;;;5092609;28;20038;-80
2020/12/17 00:59:30;;;;;;;40.08;24.10;;;3.30;99.90;;;;;;5065986;28;20401;-79
2020/12/17 01:01:56;;;;;;;41.50;25.52;;;3.30;99.90;;;;;;5093267;28;20044;-78
2020/12/17 01:04:22;;;;;;;40.22;24.08;;;3.30;99.90;;;;;;5093207;28;20084;-79
2020/12/17 01:06:49;;;;;;;37.10;23.10;;;3.20;99.90;;;;;;5075564;28;20086;-77
2020/12/17 01:09:14;;;;;;;43.17;25.38;;;3.20;99.90;;;;;;5092986;28;20031;-81
2020/12/17 01:11:40;;;;;;;40.85;24.33;;;3.20;99.90;;;;;;5093119;28;20075;-80
2020/12/17 01:14:06;;;;;;;39.92;23.40;;;3.20;99.90;;;;;;5073877;28;20078;-81
2020/12/17 01:16:31;;;;;;;40.72;23.67;;;3.10;99.90;;;;;;5093047;28;20095;-82
2020/12/17 01:18:57;;;;;;;34.88;20.92;;;3.10;99.90;;;;;;5092185;28;20028;-80
2020/12/17 01:21:23;;;;;;;37.50;23.30;;;3.00;99.90;;;;;;5092488;28;20071;-76
2020/12/17 01:23:49;;;;;;;45.05;24.55;;;3.00;99.90;;;;;;5092009;28;20097;-76
2020/12/17 01:26:14;;;;;;;41.90;24.75;;;2.90;99.90;;;;;;5093097;28;20032;-81
2020/12/17 01:28:41;;;;;;;45.85;25.02;;;2.90;99.90;;;;;;5088973;28;20036;-81
2020/12/17 01:31:12;;;;;;;40.88;24.10;;;2.90;99.90;;;;;;5091917;28;20036;-74
2020/12/17 01:33:39;;;;;;;40.30;23.45;;;2.90;99.90;;;;;;5093030;28;20038;-75
2020/12/17 01:36:09;;;;;;;43.80;25.00;;;2.80;99.90;;;;;;5091928;28;20510;-78
2020/12/17 01:38:36;;;;;;;44.72;25.42;;;2.80;99.90;;;;;;5074143;28;20469;-78
2020/12/17 01:41:03;;;;;;;42.45;24.58;;;2.80;99.90;;;;;;5091033;28;20046;-78
2020/12/17 01:43:39;;;;;;;45.33;25.55;;;2.70;99.90;;;;;;5093119;28;20092;-82
2020/12/17 01:46:06;;;;;;;37.20;23.23;;;2.70;99.90;;;;;;5092852;28;20023;-80
2020/12/17 01:48:32;;;;;;;37.83;22.63;;;2.70;99.90;;;;;;5093458;28;20028;-73
2020/12/17 01:50:59;;;;;;;39.25;23.67;;;2.60;99.90;;;;;;5093836;28;20039;-82
2020/12/17 01:53:25;;;;;;;36.88;22.58;;;2.60;99.90;;;;;;5100570;28;20077;-75
2020/12/17 01:55:55;;;;;;;38.60;22.30;;;2.60;99.90;;;;;;5109439;28;20079;-77
2020/12/17 01:58:25;;;;;;;39.30;21.65;;;2.60;99.90;;;;;;5091791;28;20032;-80
2020/12/17 02:00:53;;;;;;;44.80;23.95;;;2.50;99.90;;;;;;5111128;28;20016;-75
2020/12/17 02:03:20;;;;;;;52.03;28.20;;;2.50;99.90;;;;;;5077399;28;20036;-81
2020/12/17 02:05:47;;;;;;;40.80;24.85;;;2.40;99.90;;;;;;5095819;28;20063;-80
2020/12/17 02:08:15;;;;;;;36.42;21.10;;;2.40;99.90;;;;;;5093630;28;20483;-78
2020/12/17 02:10:41;;;;;;;39.85;23.38;;;2.40;99.90;;;;;;5094716;28;20032;-82
2020/12/17 02:13:07;;;;;;;39.53;22.38;;;2.30;99.90;;;;;;5093350;28;20035;-82
2020/12/17 02:15:32;;;;;;;35.53;21.27;;;2.30;99.90;;;;;;5092902;28;20080;-81
2020/12/17 02:17:58;;;;;;;35.97;21.65;;;2.30;99.90;;;;;;5091703;28;20052;-81
2020/12/17 02:20:23;;;;;;;49.75;27.63;;;2.20;99.90;;;;;;5095859;28;20473;-78
2020/12/17 02:22:50;;;;;;;45.55;25.63;;;2.20;99.90;;;;;;5096193;28;20046;-77
2020/12/17 02:25:15;;;;;;;49.53;27.67;;;2.20;99.90;;;;;;5092233;28;20042;-80
2020/12/17 02:27:42;;;;;;;40.10;23.88;;;2.20;99.90;;;;;;5092139;28;20031;-81
2020/12/17 02:30:11;;;;;;;38.05;22.40;;;2.30;99.90;;;;;;5091306;28;20039;-80
2020/12/17 02:32:37;;;;;;;39.85;23.27;;;2.30;99.90;;;;;;5091646;28;20093;-75
2020/12/17 02:35:04;;;;;;;38.92;22.58;;;2.20;99.90;;;;;;5073024;28;20023;-82
2020/12/17 02:37:30;;;;;;;35.92;22.67;;;2.20;99.90;;;;;;5091672;28;20028;-77
2020/12/17 02:39:56;;;;;;;36.97;22.08;;;2.20;99.90;;;;;;5090927;28;20048;-74
2020/12/17 02:42:22;;;;;;;38.13;22.85;;;2.20;99.90;;;;;;5091270;28;20062;-81
2020/12/17 02:44:47;;;;;;;37.13;22.45;;;2.10;99.90;;;;;;5091381;28;20028;-76
2020/12/17 02:47:13;;;;;;;41.65;23.38;;;2.10;99.90;;;;;;5072942;28;20083;-82
2020/12/17 02:49:39;;;;;;;41.80;23.05;;;2.10;99.90;;;;;;5091621;28;20040;-80
2020/12/17 02:52:05;;;;;;;42.22;23.13;;;2.10;99.90;;;;;;5089988;28;20028;-81
2020/12/17 02:54:31;;;;;;;35.55;22.77;;;2.10;99.90;;;;;;5073198;28;20028;-79
2020/12/17 02:56:56;;;;;;;45.78;25.52;;;2.00;99.90;;;;;;5090609;28;20024;-80
2020/12/17 02:59:22;;;;;;;47.35;26.27;;;2.10;99.90;;;;;;5086003;28;20117;-81
2020/12/17 03:01:48;;;;;;;39.78;23.70;;;2.00;99.90;;;;;;5091739;28;20042;-75
2020/12/17 03:04:13;;;;;;;40.47;23.27;;;2.10;99.90;;;;;;5090349;28;20232;-79
2020/12/17 03:06:39;;;;;;;38.53;22.58;;;2.10;99.90;;;;;;5090541;28;20021;-81
2020/12/17 03:09:06;;;;;;;36.95;21.45;;;2.10;99.90;;;;;;5090040;28;20036;-81
2020/12/17 03:11:32;;;;;;;32.78;20.52;;;2.10;99.90;;;;;;5073214;28;20365;-82
2020/12/17 03:13:57;;;;;;;36.58;22.35;;;2.10;99.90;;;;;;5072329;28;20028;-81
2020/12/17 03:16:24;;;;;;;30.55;18.58;;;2.10;99.90;;;;;;5091278;28;20467;-81
2020/12/17 03:18:49;;;;;;;33.22;19.25;;;2.10;99.90;;;;;;5090688;28;20038;-81
2020/12/17 03:21:15;;;;;;;31.27;19.05;;;2.00;99.90;;;;;;5090909;28;20040;-81
2020/12/17 03:23:41;;;;;;;39.60;22.98;;;2.00;99.90;;;;;;5090688;28;20047;-81
2020/12/17 03:26:07;;;;;;;39.60;22.80;;;2.00;99.90;;;;;;5090108;28;20051;-82
2020/12/17 03:28:33;;;;;;;37.17;21.92;;;2.00;99.90;;;;;;5090796;28;20028;-77
2020/12/17 03:30:58;;;;;;;36.00;20.73;;;2.00;99.90;;;;;;5090477;28;20460;-81
2020/12/17 03:33:24;;;;;;;33.47;20.30;;;2.00;99.90;;;;;;5090781;28;20031;-78
2020/12/17 03:35:50;;;;;;;35.35;20.58;;;2.00;99.90;;;;;;5086823;28;20020;-81
2020/12/17 03:38:16;;;;;;;35.45;21.92;;;2.00;99.90;;;;;;5086978;28;20085;-81
2020/12/17 03:40:42;;;;;;;35.22;20.70;;;1.90;99.90;;;;;;5072146;28;20044;-81
2020/12/17 03:43:08;;;;;;;37.28;21.27;;;1.90;99.90;;;;;;5090467;28;20469;-81
2020/12/17 03:45:34;;;;;;;34.45;20.27;;;1.90;99.90;;;;;;5090610;28;20040;-78
2020/12/17 03:48:00;;;;;;;41.72;22.73;;;1.90;99.90;;;;;;5090275;28;20049;-81
2020/12/17 03:50:25;;;;;;;41.10;24.25;;;1.80;99.90;;;;;;5090740;28;20040;-81
2020/12/17 03:52:51;;;;;;;55.20;29.27;;;1.80;99.90;;;;;;5090618;28;20119;-81
2020/12/17 03:55:17;;;;;;;51.47;29.30;;;1.80;99.90;;;;;;5071987;28;20073;-81
2020/12/17 03:57:42;;;;;;;49.92;27.08;;;1.90;99.90;;;;;;5087992;28;20024;-80
2020/12/17 04:00:08;;;;;;;41.35;24.65;;;1.90;99.90;;;;;;5089990;28;20104;-81
2020/12/17 04:02:34;;;;;;;47.22;26.30;;;1.90;99.90;;;;;;5090713;28;20055;-81
2020/12/17 04:05:00;;;;;;;39.00;23.48;;;2.00;99.90;;;;;;5092831;28;20453;-80
2020/12/17 04:07:25;;;;;;;38.05;22.33;;;2.00;99.90;;;;;;5090458;28;20081;-81
2020/12/17 04:09:51;;;;;;;40.92;22.65;;;2.00;99.90;;;;;;5094380;28;20415;-73
2020/12/17 04:12:17;;;;;;;37.00;20.92;;;2.00;99.90;;;;;;5093545;28;20036;-81
2020/12/17 04:14:42;;;;;;;34.78;20.70;;;2.00;99.90;;;;;;5094383;28;20020;-77
2020/12/17 04:17:08;;;;;;;29.10;18.98;;;1.90;99.90;;;;;;5093611;28;20452;-75
2020/12/17 04:19:34;;;;;;;36.00;21.58;;;1.90;99.90;;;;;;5075587;28;20381;-81
2020/12/17 04:21:59;;;;;;;45.60;23.90;;;1.80;99.90;;;;;;5093016;28;20032;-81
2020/12/17 04:24:25;;;;;;;45.90;23.98;;;1.80;99.90;;;;;;5075877;28;20032;-78
2020/12/17 04:26:52;;;;;;;40.45;23.80;;;1.80;99.90;;;;;;5094246;28;20028;-82
2020/12/17 04:29:18;;;;;;;44.20;26.05;;;1.80;99.90;;;;;;5092955;28;20469;-77
2020/12/17 04:31:44;;;;;;;41.72;23.38;;;1.80;99.90;;;;;;5094292;28;20056;-82
2020/12/17 04:34:10;;;;;;;47.03;24.52;;;1.80;99.90;;;;;;5093384;28;20059;-73
2020/12/17 04:36:35;;;;;;;41.88;23.60;;;1.80;99.90;;;;;;5093886;28;20024;-81
2020/12/17 04:39:02;;;;;;;40.00;21.48;;;1.90;99.90;;;;;;5092730;28;20395;-75
2020/12/17 04:41:31;;;;;;;44.30;23.70;;;1.90;99.90;;;;;;5075010;28;20079;-82
2020/12/17 04:43:58;;;;;;;34.50;20.88;;;1.90;99.90;;;;;;5093074;28;20362;-77
2020/12/17 04:46:25;;;;;;;37.00;20.23;;;1.90;99.90;;;;;;5093490;28;20073;-80
2020/12/17 04:48:53;;;;;;;39.58;22.40;;;1.90;99.90;;;;;;5093600;28;20380;-81
2020/12/17 04:51:20;;;;;;;40.03;24.10;;;1.90;99.90;;;;;;5092856;28;20039;-77
2020/12/17 04:53:48;;;;;;;43.45;24.63;;;1.90;99.90;;;;;;5075515;28;20038;-82
2020/12/17 04:56:16;;;;;;;39.63;23.77;;;1.90;99.90;;;;;;5092305;28;20023;-73
2020/12/17 04:58:47;;;;;;;41.00;23.60;;;2.00;99.90;;;;;;5093506;28;20052;-81
2020/12/17 05:01:15;;;;;;;39.42;22.98;;;1.90;99.90;;;;;;5092432;28;20058;-81
2020/12/17 05:03:46;;;;;;;45.67;22.98;;;2.00;99.90;;;;;;5085093;28;20028;-81
2020/12/17 05:06:18;;;;;;;47.95;25.98;;;1.90;99.90;;;;;;5092238;28;20465;-81
2020/12/17 05:08:44;;;;;;;56.58;27.73;;;2.00;99.90;;;;;;5093311;28;20051;-80
2020/12/17 05:11:10;;;;;;;56.42;29.30;;;2.20;99.90;;;;;;5092117;28;20031;-80
2020/12/17 05:13:35;;;;;;;49.58;26.85;;;2.30;99.90;;;;;;5093029;28;20032;-80
2020/12/17 05:16:01;;;;;;;49.35;25.67;;;2.50;99.90;;;;;;5091848;28;20475;-80
2020/12/17 05:18:26;;;;;;;44.72;22.50;;;2.70;99.90;;;;;;5092837;28;20388;-80
2020/12/17 05:20:54;;;;;;;36.65;20.60;;;2.70;99.90;;;;;;5093008;28;20488;-81
2020/12/17 05:23:23;;;;;;;41.83;21.92;;;2.80;99.90;;;;;;5073749;28;20036;-79
2020/12/17 05:25:51;;;;;;;35.40;22.75;;;2.80;99.90;;;;;;5092752;28;20098;-81
2020/12/17 05:28:17;;;;;;;35.03;21.83;;;2.70;99.90;;;;;;5091734;28;20024;-76
2020/12/17 05:30:42;;;;;;;36.58;20.73;;;2.70;99.90;;;;;;5074607;28;20028;-78
2020/12/17 05:33:08;;;;;;;47.92;24.20;;;2.70;99.90;;;;;;5092306;28;20047;-80
2020/12/17 05:35:35;;;;;;;36.88;20.77;;;2.70;99.90;;;;;;5092172;28;20024;-81
2020/12/17 05:38:06;;;;;;;27.55;17.70;;;3.00;99.90;;;;;;5091744;28;20031;-80
2020/12/17 05:40:43;;;;;;;23.80;16.05;;;3.50;99.90;;;;;;5092689;28;20142;-74
2020/12/17 05:43:10;;;;;;;19.67;13.70;;;3.80;99.90;;;;;;5091547;28;20028;-82
2020/12/17 05:45:36;;;;;;;20.27;13.15;;;4.00;99.90;;;;;;5092342;28;20444;-76
2020/12/17 05:48:12;;;;;;;20.30;13.68;;;4.10;99.90;;;;;;5073531;28;20020;-81
2020/12/17 05:51:00;;;;;;;18.95;13.18;;;4.10;99.90;;;;;;5092527;28;20028;-81
2020/12/17 05:53:28;;;;;;;20.13;13.38;;;4.00;99.90;;;;;;5092485;28;20033;-83
2020/12/17 05:56:08;;;;;;;17.70;13.15;;;3.90;99.90;;;;;;5094216;28;20028;-81
2020/12/17 05:58:39;;;;;;;17.70;11.93;;;3.80;99.90;;;;;;5091455;28;20128;-79
2020/12/17 06:01:27;;;;;;;17.77;13.35;;;3.60;99.90;;;;;;5072931;28;20385;-81
2020/12/17 06:03:53;;;;;;;20.98;13.73;;;3.50;99.90;;;;;;5092561;28;20020;-81
2020/12/17 06:06:19;;;;;;;17.27;12.68;;;3.40;99.90;;;;;;5090644;28;20051;-80
2020/12/17 06:08:52;;;;;;;19.52;12.95;;;3.20;99.90;;;;;;5092016;28;20385;-81
2020/12/17 06:11:22;;;;;;;24.95;15.10;;;3.10;99.90;;;;;;5091302;28;20138;-76
2020/12/17 06:13:52;;;;;;;;;;;3.00;99.90;;;;;;5092050;28;20107;-81
2020/12/17 06:16:19;;;;;;;23.27;14.05;;;2.90;99.90;;;;;;5091418;28;20106;-82
2020/12/17 06:18:56;;;;;;;27.52;15.52;;;2.80;99.90;;;;;;5073898;28;20039;-83
2020/12/17 06:21:26;;;;;;;23.52;14.27;;;2.70;99.90;;;;;;5083330;28;20131;-82
2020/12/17 06:24:00;;;;;;;22.60;15.27;;;2.70;99.90;;;;;;5073811;28;20109;-81
2020/12/17 06:26:26;;;;;;;24.33;15.75;;;2.70;99.90;;;;;;5090389;28;20206;-81
2020/12/17 06:28:53;;;;;;;26.85;16.25;;;2.70;99.90;;;;;;5082983;28;20095;-75
2020/12/17 06:31:20;;;;;;;23.70;15.23;;;2.70;99.90;;;;;;5090685;28;20028;-78
2020/12/17 06:33:49;;;;;;;24.42;15.85;;;2.70;99.90;;;;;;5091634;28;20115;-80
2020/12/17 06:36:36;;;;;;;24.90;15.33;;;2.70;99.90;;;;;;5090679;28;20038;-73
2020/12/17 06:39:06;;;;;;;20.73;13.98;;;2.80;99.90;;;;;;5084373;28;20016;-77
2020/12/17 06:41:32;;;;;;;22.33;13.93;;;2.80;99.90;;;;;;5091648;28;20055;-78
2020/12/17 06:43:58;;;;;;;21.13;13.95;;;2.70;99.90;;;;;;5091159;28;20040;-80
2020/12/17 06:46:28;;;;;;;21.92;14.82;;;2.70;99.90;;;;;;5091042;28;20472;-81
2020/12/17 06:48:54;;;;;;;;;;;2.60;99.90;;;;;;5091718;28;20039;-81
2020/12/17 06:51:40;;;;;;;23.33;14.77;;;2.50;99.90;;;;;;5072306;28;19967;-80
2020/12/17 06:54:16;;;;;;;21.55;14.85;;;2.50;99.90;;;;;;5090692;28;20169;-81
2020/12/17 06:57:07;;;;;;;23.50;15.38;;;2.40;99.90;;;;;;5086335;28;20027;-81
2020/12/17 06:59:33;;;;;;;24.65;14.98;;;2.30;99.90;;;;;;5090617;28;20093;-81
2020/12/17 07:01:59;;;;;;;24.13;15.15;;;2.30;99.90;;;;;;5091142;28;20032;-76
2020/12/17 07:04:41;;;;;;;25.27;16.58;;;2.30;99.90;;;;;;5090863;28;20028;-80
2020/12/17 07:07:27;;;;;;;25.60;16.52;;;2.20;99.90;;;;;;5083006;28;20039;-81
2020/12/17 07:09:57;;;;;;;28.92;19.17;;;2.20;99.90;;;;;;5090953;28;20040;-81
2020/12/17 07:12:35;;;;;;;27.45;17.23;;;2.20;99.90;;;;;;5090175;28;20095;-77
2020/12/17 07:15:04;;;;;;;27.35;17.13;;;2.20;99.90;;;;;;5090149;28;20088;-76
2020/12/17 07:17:30;;;;;;;23.25;15.70;;;2.20;99.90;;;;;;5093330;28;20043;-78
2020/12/17 07:19:56;;;;;;;23.90;16.08;;;2.20;99.90;;;;;;5091489;28;20043;-79
2020/12/17 07:22:22;;;;;;;25.00;16.92;;;2.20;99.90;;;;;;5091034;28;20032;-79
2020/12/17 07:24:49;;;;;;;25.38;17.30;;;2.30;99.90;;;;;;5091563;28;20020;-80
2020/12/17 07:27:22;;;;;;;26.80;17.90;;;2.30;99.90;;;;;;5089561;28;20047;-80
2020/12/17 07:29:50;;;;;;;24.08;16.08;;;2.40;99.90;;;;;;5088149;28;20113;-73
2020/12/17 07:32:22;;;;;;;26.08;16.52;;;2.50;99.90;;;;;;5089832;28;20381;-79
2020/12/17 07:34:48;;;;;;;25.77;15.25;;;2.60;99.90;;;;;;5091274;28;20077;-76
2020/12/17 07:37:40;;;;;;;21.92;14.63;;;2.70;99.90;;;;;;5090086;28;20020;-72
2020/12/17 07:40:11;;;;;;;20.75;14.07;;;2.70;99.90;;;;;;5087988;28;20059;-79
2020/12/17 07:42:38;;;;;;;21.73;13.95;;;2.80;99.90;;;;;;5094508;28;20028;-81
2020/12/17 07:45:05;;;;;;;29.70;17.95;;;2.90;99.90;;;;;;5083950;28;20031;-77
2020/12/17 07:47:31;;;;;;;22.75;15.73;;;3.00;99.90;;;;;;5095462;28;20032;-79
2020/12/17 07:49:57;;;;;;;31.02;17.05;;;3.10;99.90;;;;;;5075969;28;20101;-75
2020/12/17 07:52:34;;;;;;;24.45;15.98;;;3.10;99.90;;;;;;5075893;28;20066;-76
2020/12/17 07:55:01;;;;;;;26.77;16.17;;;3.10;99.90;;;;;;5089852;28;20028;-78
2020/12/17 07:57:27;;;;;;;32.15;18.25;;;3.10;99.90;;;;;;5094042;28;20036;-80
2020/12/17 07:59:53;;;;;;;32.45;17.30;;;3.10;99.90;;;;;;5092003;28;20039;-78
2020/12/17 08:02:19;;;;;;;25.20;16.20;;;3.20;99.90;;;;;;5093889;28;20020;-80
2020/12/17 08:04:48;;;;;;;27.02;16.05;;;3.20;99.90;;;;;;5094457;28;20028;-78
2020/12/17 08:07:15;;;;;;;24.08;15.75;;;3.20;99.90;;;;;;5093809;28;20028;-73
2020/12/17 08:09:41;;;;;;;28.85;16.33;;;3.30;99.90;;;;;;5094053;28;20497;-81
2020/12/17 08:12:10;;;;;;;26.15;15.20;;;3.30;99.90;;;;;;5094791;28;20039;-86
2020/12/17 08:14:36;;;;;;;14.93;9.05;;;3.40;99.90;;;;;;5075460;28;20385;-81
2020/12/17 08:17:06;;;;;;;17.45;11.10;;;3.60;99.90;;;;;;5098298;28;20028;-77
2020/12/17 08:19:32;;;;;;;12.25;7.22;;;3.70;99.90;;;;;;5098504;28;20032;-91
2020/12/17 08:22:00;;;;;;;7.05;4.85;;;4.00;99.90;;;;;;5103002;28;20370;-93
2020/12/17 08:24:28;;;;;;;10.07;5.32;;;4.30;99.90;;;;;;5096041;28;20334;-86
2020/12/17 08:26:55;;;;;;;9.50;6.82;;;4.60;99.90;;;;;;5095670;28;20434;-87
2020/12/17 08:29:23;;;;;;;7.78;4.60;;;4.80;99.90;;;;;;5093820;28;20028;-89
2020/12/17 08:31:49;;;;;;;11.02;5.88;;;4.90;99.90;;;;;;5093009;28;20107;-79
2020/12/17 08:34:15;;;;;;;6.88;4.53;;;5.00;99.90;;;;;;5091416;28;20411;-77
2020/12/17 08:36:41;;;;;;;6.05;3.75;;;5.20;99.90;;;;;;5093449;28;20465;-77
2020/12/17 08:39:10;;;;;;;5.38;3.55;;;5.40;99.90;;;;;;5093222;28;20028;-76
2020/12/17 08:41:40;;;;;;;9.38;5.25;;;5.70;99.90;;;;;;5093088;28;20051;-79
2020/12/17 08:44:07;;;;;;;6.45;3.58;;;5.90;99.90;;;;;;5093384;28;20043;-78
2020/12/17 08:46:44;;;;;;;12.10;7.60;;;6.00;99.90;;;;;;5093128;28;20127;-79
2020/12/17 08:49:11;;;;;;;11.30;6.28;;;6.10;99.90;;;;;;5092603;28;20089;-81
2020/12/17 08:51:37;;;;;;;14.20;6.78;;;6.10;99.90;;;;;;5092556;28;20504;-80
2020/12/17 08:54:04;;;;;;;14.32;7.70;;;6.10;99.90;;;;;;5093307;28;20090;-77
2020/12/17 08:56:30;;;;;;;12.63;7.53;;;6.10;99.90;;;;;;5093933;28;20106;-81
2020/12/17 08:59:04;;;;;;;13.13;7.90;;;6.00;99.90;;;;;;5091570;28;20032;-77
2020/12/17 09:01:32;;;;;;;13.45;8.20;;;5.90;99.90;;;;;;5088413;28;20053;-81
2020/12/17 09:03:58;;;;;;;12.38;8.63;;;5.90;99.90;;;;;;5093460;28;20039;-80
2020/12/17 09:06:30;;;;;;;18.42;10.82;;;5.90;99.90;;;;;;5087117;28;20270;-80
2020/12/17 09:09:14;;;;;;;14.05;9.93;;;5.80;99.90;;;;;;5099726;28;20024;-81
2020/12/17 09:11:43;;;;;;;14.30;8.98;;;5.80;99.90;;;;;;5096466;28;20032;-81
2020/12/17 09:14:10;;;;;;;12.35;7.80;;;5.80;99.90;;;;;;5099737;28;20028;-80
2020/12/17 09:16:40;;;;;;;18.10;8.55;;;5.80;99.90;;;;;;5102923;28;20038;-80
2020/12/17 09:19:07;;;;;;;;;;;5.80;99.90;;;;;;5101470;28;20546;-74
2020/12/17 09:21:34;;;;;;;14.32;8.32;;;5.70;99.90;;;;;;5093856;28;19924;-80
2020/12/17 09:24:01;;;;;;;15.73;8.85;;;5.70;99.90;;;;;;5074669;28;20028;-80
2020/12/17 09:26:27;;;;;;;18.05;8.70;;;5.60;99.90;;;;;;5092694;28;20717;-80
2020/12/17 09:28:54;;;;;;;18.88;9.15;;;5.60;99.90;;;;;;5091633;28;20465;-81
2020/12/17 09:31:24;;;;;;;15.65;8.48;;;5.60;99.90;;;;;;5088770;28;20028;-83
2020/12/17 09:34:00;;;;;;;15.55;9.27;;;5.50;99.90;;;;;;5084909;28;21241;-82
2020/12/17 09:36:27;;;;;;;20.35;9.30;;;5.50;99.90;;;;;;5083269;28;20028;-77
2020/12/17 09:39:03;;;;;;;12.32;8.38;;;5.40;99.90;;;;;;5076639;28;20059;-82
2020/12/17 09:41:29;;;;;;;13.70;9.25;;;5.40;99.90;;;;;;5091533;28;20135;-76
2020/12/17 09:43:55;;;;;;;17.02;8.75;;;5.40;99.90;;;;;;5092473;28;20052;-78
2020/12/17 09:46:21;;;;;;;8.68;5.13;;;5.40;99.90;;;;;;5087177;28;20032;-74
2020/12/17 09:48:47;;;;;;;8.27;4.07;;;5.50;99.90;;;;;;5092258;28;20373;-82
2020/12/17 09:51:12;;;;;;;9.57;3.83;;;5.80;99.90;;;;;;5091853;28;20096;-79
2020/12/17 09:53:41;;;;;;;4.32;3.38;;;6.00;99.90;;;;;;5092158;28;20060;-81
2020/12/17 09:56:11;;;;;;;5.25;3.38;;;6.20;99.90;;;;;;5083789;28;20108;-76
2020/12/17 09:58:41;;;;;;;4.20;3.10;;;6.50;99.90;;;;;;5084238;28;20020;-81
2020/12/17 10:01:07;;;;;;;17.55;6.60;;;6.70;99.90;;;;;;5086396;28;20032;-77
2020/12/17 10:03:32;;;;;;;10.55;6.43;;;6.90;99.90;;;;;;5091527;28;20385;-79
2020/12/17 10:05:58;;;;;;;12.70;6.75;;;7.00;99.90;;;;;;5091885;28;20491;-82
2020/12/17 10:08:25;;;;;;;12.73;7.03;;;7.00;99.90;;;;;;5084495;28;20404;-76
2020/12/17 10:10:51;;;;;;;14.57;8.27;;;7.00;99.90;;;;;;5091947;28;20032;-81
2020/12/17 10:13:16;;;;;;;14.68;8.18;;;7.10;99.90;;;;;;5091211;28;20089;-78
2020/12/17 10:15:42;;;;;;;16.25;7.88;;;7.10;99.90;;;;;;5088192;28;20020;-81
2020/12/17 10:18:09;;;;;;;19.75;10.93;;;7.10;99.90;;;;;;5092290;28;20085;-79
2020/12/17 10:20:35;;;;;;;19.85;10.63;;;7.20;99.90;;;;;;5075794;28;20538;-84
2020/12/17 10:23:01;;;;;;;19.00;10.55;;;7.30;99.90;;;;;;5095420;28;20027;-84
2020/12/17 10:25:26;;;;;;;19.60;10.25;;;7.40;99.90;;;;;;5091160;28;20106;-82
2020/12/17 10:27:55;;;;;;;14.85;7.78;;;7.50;99.90;;;;;;5094906;28;20026;-83
2020/12/17 10:30:20;;;;;;;10.68;6.63;;;7.70;99.90;;;;;;5093884;28;20040;-76
2020/12/17 10:32:47;;;;;;;13.57;7.18;;;7.80;99.90;;;;;;5087086;28;20028;-76
2020/12/17 10:35:13;;;;;;;10.15;6.22;;;7.80;99.90;;;;;;5091470;28;20020;-82
2020/12/17 10:37:40;;;;;;;8.75;6.03;;;7.90;99.90;;;;;;5073215;28;20024;-86
2020/12/17 10:40:06;;;;;;;10.48;6.50;;;7.90;99.90;;;;;;5084565;28;20101;-77
2020/12/17 10:42:32;;;;;;;9.05;6.13;;;7.90;99.90;;;;;;5091157;28;20028;-83
2020/12/17 10:44:57;;;;;;;9.27;6.07;;;7.90;99.90;;;;;;5086726;28;20021;-83
2020/12/17 10:47:23;;;;;;;9.85;6.50;;;8.00;99.90;;;;;;5089300;28;20459;-85
2020/12/17 10:49:49;;;;;;;13.85;7.03;;;7.90;99.90;;;;;;5078714;28;20472;-84
2020/12/17 10:52:15;;;;;;;8.35;5.93;;;8.00;99.90;;;;;;5091208;28;20068;-83
2020/12/17 10:54:41;;;;;;;9.63;6.45;;;8.00;99.90;;;;;;5091366;28;20032;-80
2020/12/17 10:57:06;;;;;;;10.10;5.95;;;8.10;99.90;;;;;;5073292;28;20028;-79
2020/12/17 10:59:32;;;;;;;11.55;6.47;;;8.10;99.90;;;;;;5077794;28;20060;-84
2020/12/17 11:01:59;;;;;;;9.10;6.10;;;8.20;99.90;;;;;;5081033;28;20040;-82
2020/12/17 11:04:25;;;;;;;6.72;5.07;;;8.30;99.90;;;;;;5083340;28;20495;-83
2020/12/17 11:06:55;;;;;;;5.55;4.00;;;8.30;99.90;;;;;;5094424;28;20114;-83
2020/12/17 11:09:20;;;;;;;7.78;4.53;;;8.60;99.90;;;;;;5090725;28;20449;-82
2020/12/17 11:11:52;;;;;;;4.80;3.08;;;8.80;99.90;;;;;;5091051;28;20040;-79
2020/12/17 11:14:19;;;;;;;5.63;2.90;;;9.10;99.30;;;;;;5094410;28;20089;-80
2020/12/17 11:16:48;;;;;;;7.32;2.72;;;9.30;96.70;;;;;;5089799;28;20089;-80
2020/12/17 11:19:13;;;;;;;4.47;2.72;;;9.50;93.60;;;;;;5090389;28;20025;-76
2020/12/17 11:21:39;;;;;;;3.03;2.40;;;9.70;93.60;;;;;;5094861;28;20503;-79
2020/12/17 11:24:05;;;;;;;6.95;3.28;;;9.80;93.30;;;;;;5095016;28;20032;-80
2020/12/17 11:26:30;;;;;;;3.58;2.25;;;9.90;91.30;;;;;;5093688;28;20036;-79
2020/12/17 11:28:58;;;;;;;3.72;2.40;;;9.90;92.20;;;;;;5092571;28;20492;-78
2020/12/17 11:31:25;;;;;;;4.35;2.60;;;10.00;92.80;;;;;;5093552;28;20040;-78
2020/12/17 11:33:52;;;;;;;4.40;2.70;;;10.10;90.60;;;;;;5095006;28;20051;-79
2020/12/17 11:36:17;;;;;;;3.85;2.55;;;10.10;91.60;;;;;;5093782;28;20028;-79
2020/12/17 11:38:43;;;;;;;21.50;12.80;;;10.10;91.10;;;;;;5094771;28;20065;-80
2020/12/17 11:41:11;;;;;;;10.82;6.50;;;10.20;90.60;;;;;;5094168;28;20044;-78
2020/12/17 11:43:37;;;;;;;12.88;4.43;;;10.10;90.90;;;;;;5094203;28;20039;-78
2020/12/17 11:46:02;;;;;;;9.88;5.15;;;10.00;90.90;;;;;;5094017;28;20481;-78
2020/12/17 11:48:29;;;;;;;8.73;4.60;;;9.90;91.90;;;;;;5093762;28;20032;-80
2020/12/17 11:50:54;;;;;;;11.30;4.55;;;9.80;93.20;;;;;;5093841;28;20095;-80
2020/12/17 11:53:21;;;;;;;5.00;3.72;;;9.80;92.90;;;;;;5093949;28;20111;-77
2020/12/17 11:55:46;;;;;;;5.45;3.15;;;9.80;92.10;;;;;;5094170;28;20055;-80
2020/12/17 11:58:12;;;;;;;4.32;2.83;;;9.90;91.80;;;;;;5093527;28;20052;-76
2020/12/17 12:00:38;;;;;;;3.88;3.08;;;10.00;90.40;;;;;;5079890;28;20078;-76
2020/12/17 12:03:03;;;;;;;5.20;3.10;;;10.10;90.20;;;;;;5096187;28;20020;-81
2020/12/17 12:05:30;;;;;;;4.35;2.70;;;10.20;89.50;;;;;;5093178;28;20740;-79
2020/12/17 12:07:56;;;;;;;3.50;2.80;;;10.20;89.80;;;;;;5094475;28;20051;-80
2020/12/17 12:10:22;;;;;;;4.85;2.83;;;10.30;91.00;;;;;;5092016;28;20112;-88
2020/12/17 12:12:47;;;;;;;3.08;2.50;;;10.30;89.50;;;;;;5075584;28;20165;-72
2020/12/17 12:15:13;;;;;;;5.53;3.40;;;10.30;90.50;;;;;;5088301;28;20036;-75
2020/12/17 12:17:39;;;;;;;6.40;4.07;;;10.30;89.00;;;;;;5097106;28;20028;-85
2020/12/17 12:20:04;;;;;;;7.40;5.13;;;10.30;90.30;;;;;;5098735;28;20473;-87
2020/12/17 12:22:30;;;;;;;13.15;4.93;;;10.20;90.30;;;;;;5090663;28;20121;-82
2020/12/17 12:24:56;;;;;;;9.95;5.47;;;10.10;90.50;;;;;;5088778;28;20094;-82
2020/12/17 12:27:22;;;;;;;8.45;4.88;;;10.00;91.50;;;;;;5097504;28;20029;-87
2020/12/17 12:29:47;;;;;;;8.18;5.13;;;9.90;92.20;;;;;;5098078;28;20103;-84
2020/12/17 12:32:15;;;;;;;10.32;5.30;;;9.90;92.90;;;;;;5107193;28;20058;-79
2020/12/17 12:34:41;;;;;;;9.95;5.55;;;9.90;93.30;;;;;;5085120;28;20115;-84
2020/12/17 12:37:07;;;;;;;14.00;5.90;;;9.80;93.70;;;;;;5097858;28;20103;-79
2020/12/17 12:39:32;;;;;;;11.98;6.28;;;9.80;94.40;;;;;;5093276;28;20107;-87
2020/12/17 12:41:58;;;;;;;11.18;5.90;;;9.80;94.70;;;;;;5075663;28;20045;-85
2020/12/17 12:44:24;;;;;;;11.52;5.47;;;9.80;94.30;;;;;;5074321;28;20024;-83